sensor_id;sensor_type;location;lat;lon;timestamp;temperature;humidity
20773;DHT22;10546;50.674;4.616;2023-04-25T05:26:13;7.60;99.90
20773;DHT22;10546;50.674;4.616;2023-04-25T05:28:42;7.70;99.90
20773;DHT22;10546;50.674;4.616;2023-04-25T05:31:09;7.90;99.90
20773;DHT22;10546;50.674;4.616;2023-04-25T05:33:35;7.90;99.90
20773;DHT22;10546;50.674;4.616;2023-04-25T05:36:00;7.90;99.90
20773;DHT22;10546;50.674;4.616;2023-04-25T05:38:26;7.90;99.90
20773;DHT22;10546;50.674;4.616;2023-04-25T05:40:52;8.10;99.90
20773;DHT22;10546;50.674;4.616;2023-04-25T05:43:19;8.00;99.90
20773;DHT22;10546;50.674;4.616;2023-04-25T05:45:44;7.80;99.90
20773;DHT22;10546;50.674;4.616;2023-04-25T05:48:10;7.80;99.90
20773;DHT22;10546;50.674;4.616;2023-04-25T05:50:36;7.70;99.90
20773;DHT22;10546;50.674;4.616;2023-04-25T05:53:02;7.80;99.90
20773;DHT22;10546;50.674;4.616;2023-04-25T05:55:28;7.80;99.90
20773;DHT22;10546;50.674;4.616;2023-04-25T05:57:53;7.80;99.90
20773;DHT22;10546;50.674;4.616;2023-04-25T06:00:19;7.70;99.90
20773;DHT22;10546;50.674;4.616;2023-04-25T06:02:45;7.60;99.90
20773;DHT22;10546;50.674;4.616;2023-04-25T06:05:11;7.60;99.90
20773;DHT22;10546;50.674;4.616;2023-04-25T06:07:36;7.50;99.90
20773;DHT22;10546;50.674;4.616;2023-04-25T06:10:02;7.40;99.90
20773;DHT22;10546;50.674;4.616;2023-04-25T06:12:32;7.50;99.90
20773;DHT22;10546;50.674;4.616;2023-04-25T06:14:58;7.50;99.90
20773;DHT22;10546;50.674;4.616;2023-04-25T06:17:24;7.30;99.90
20773;DHT22;10546;50.674;4.616;2023-04-25T06:19:49;7.40;99.90
20773;DHT22;10546;50.674;4.616;2023-04-25T06:22:15;7.40;99.90
20773;DHT22;10546;50.674;4.616;2023-04-25T06:24:41;7.30;99.90
20773;DHT22;10546;50.674;4.616;2023-04-25T06:27:06;7.40;99.90
20773;DHT22;10546;50.674;4.616;2023-04-25T06:29:32;7.50;99.90
20773;DHT22;10546;50.674;4.616;2023-04-25T06:31:58;7.70;99.90
20773;DHT22;10546;50.674;4.616;2023-04-25T06:34:23;7.80;99.90
20773;DHT22;10546;50.674;4.616;2023-04-25T06:36:52;8.00;99.90
20773;DHT22;10546;50.674;4.616;2023-04-25T06:39:18;8.10;99.90
20773;DHT22;10546;50.674;4.616;2023-04-25T06:41:45;8.30;99.90
20773;DHT22;10546;50.674;4.616;2023-04-25T06:44:11;8.40;99.90
20773;DHT22;10546;50.674;4.616;2023-04-25T06:46:36;8.30;99.90
20773;DHT22;10546;50.674;4.616;2023-04-25T06:49:03;8.30;99.90
20773;DHT22;10546;50.674;4.616;2023-04-25T06:51:28;8.40;99.90
20773;DHT22;10546;50.674;4.616;2023-04-25T06:53:55;8.50;99.90
20773;DHT22;10546;50.674;4.616;2023-04-25T06:56:21;8.60;99.90
20773;DHT22;10546;50.674;4.616;2023-04-25T06:58:47;8.80;99.90
20773;DHT22;10546;50.674;4.616;2023-04-25T07:01:12;8.90;99.90
20773;DHT22;10546;50.674;4.616;2023-04-25T07:03:38;8.90;99.90
20773;DHT22;10546;50.674;4.616;2023-04-25T07:06:04;8.80;99.90
20773;DHT22;10546;50.674;4.616;2023-04-25T07:08:29;9.00;99.90
20773;DHT22;10546;50.674;4.616;2023-04-25T07:10:55;9.10;99.90
20773;DHT22;10546;50.674;4.616;2023-04-25T07:13:21;9.20;99.90
20773;DHT22;10546;50.674;4.616;2023-04-25T07:15:46;9.10;99.90
20773;DHT22;10546;50.674;4.616;2023-04-25T07:18:13;9.20;99.90
20773;DHT22;10546;50.674;4.616;2023-04-25T07:20:39;9.20;99.90
20773;DHT22;10546;50.674;4.616;2023-04-25T07:23:05;9.00;99.90
20773;DHT22;10546;50.674;4.616;2023-04-25T07:25:31;8.90;99.90
20773;DHT22;10546;50.674;4.616;2023-04-25T07:27:56;8.70;99.90
20773;DHT22;10546;50.674;4.616;2023-04-25T07:30:22;8.50;99.90
20773;DHT22;10546;50.674;4.616;2023-04-25T07:32:48;8.70;99.90
20773;DHT22;10546;50.674;4.616;2023-04-25T07:35:14;8.90;99.90
20773;DHT22;10546;50.674;4.616;2023-04-25T07:37:40;9.00;99.90
20773;DHT22;10546;50.674;4.616;2023-04-25T07:40:06;9.00;99.90
20773;DHT22;10546;50.674;4.616;2023-04-25T07:42:33;9.30;99.90
20773;DHT22;10546;50.674;4.616;2023-04-25T07:44:58;9.50;99.90
20773;DHT22;10546;50.674;4.616;2023-04-25T07:47:24;9.60;99.90
20773;DHT22;10546;50.674;4.616;2023-04-25T07:49:50;9.50;99.90
20773;DHT22;10546;50.674;4.616;2023-04-25T07:52:15;9.50;99.90
20773;DHT22;10546;50.674;4.616;2023-04-25T07:54:41;9.50;99.90
20773;DHT22;10546;50.674;4.616;2023-04-25T07:57:07;9.50;99.90
20773;DHT22;10546;50.674;4.616;2023-04-25T07:59:32;9.70;99.90
20773;DHT22;10546;50.674;4.616;2023-04-25T08:01:58;9.80;99.90
20773;DHT22;10546;50.674;4.616;2023-04-25T08:04:24;9.80;99.90
20773;DHT22;10546;50.674;4.616;2023-04-25T08:06:53;9.70;99.90
20773;DHT22;10546;50.674;4.616;2023-04-25T08:09:20;9.70;99.90
20773;DHT22;10546;50.674;4.616;2023-04-25T08:11:45;9.80;99.90
20773;DHT22;10546;50.674;4.616;2023-04-25T08:14:12;9.80;99.90
20773;DHT22;10546;50.674;4.616;2023-04-25T08:16:38;10.10;99.90
20773;DHT22;10546;50.674;4.616;2023-04-25T08:19:04;10.10;99.90
20773;DHT22;10546;50.674;4.616;2023-04-25T08:21:30;10.10;99.90
20773;DHT22;10546;50.674;4.616;2023-04-25T08:23:57;10.20;99.90
20773;DHT22;10546;50.674;4.616;2023-04-25T08:26:24;10.20;99.90
20773;DHT22;10546;50.674;4.616;2023-04-25T08:28:50;10.20;99.90
20773;DHT22;10546;50.674;4.616;2023-04-25T08:31:16;10.20;99.90
20773;DHT22;10546;50.674;4.616;2023-04-25T08:33:42;10.20;99.90
20773;DHT22;10546;50.674;4.616;2023-04-25T08:36:09;10.50;99.90
20773;DHT22;10546;50.674;4.616;2023-04-25T08:38:34;10.70;99.90
20773;DHT22;10546;50.674;4.616;2023-04-25T08:41:00;10.90;99.90
20773;DHT22;10546;50.674;4.616;2023-04-25T08:43:29;11.00;99.90
20773;DHT22;10546;50.674;4.616;2023-04-25T08:45:59;11.10;99.90
20773;DHT22;10546;50.674;4.616;2023-04-25T08:48:27;11.30;99.90
20773;DHT22;10546;50.674;4.616;2023-04-25T08:50:55;11.80;99.90
20773;DHT22;10546;50.674;4.616;2023-04-25T08:53:29;11.60;99.90
20773;DHT22;10546;50.674;4.616;2023-04-25T08:55:57;11.60;99.90
20773;DHT22;10546;50.674;4.616;2023-04-25T08:58:23;11.50;99.90
20773;DHT22;10546;50.674;4.616;2023-04-25T09:00:50;11.50;99.90
20773;DHT22;10546;50.674;4.616;2023-04-25T09:03:17;11.70;99.90
20773;DHT22;10546;50.674;4.616;2023-04-25T09:05:42;12.00;99.90
20773;DHT22;10546;50.674;4.616;2023-04-25T09:08:08;11.70;99.90
20773;DHT22;10546;50.674;4.616;2023-04-25T09:10:35;11.50;99.90
20773;DHT22;10546;50.674;4.616;2023-04-25T09:13:08;11.30;99.90
20773;DHT22;10546;50.674;4.616;2023-04-25T09:15:50;11.50;99.90
20773;DHT22;10546;50.674;4.616;2023-04-25T09:21:12;11.60;99.90
20773;DHT22;10546;50.674;4.616;2023-04-25T09:23:46;11.70;99.90
20773;DHT22;10546;50.674;4.616;2023-04-25T09:26:17;11.90;99.90
20773;DHT22;10546;50.674;4.616;2023-04-25T09:28:43;11.90;99.90
20773;DHT22;10546;50.674;4.616;2023-04-25T09:31:20;12.30;99.90
20773;DHT22;10546;50.674;4.616;2023-04-25T09:33:46;12.90;99.90
20773;DHT22;10546;50.674;4.616;2023-04-25T09:36:12;14.00;99.90
20773;DHT22;10546;50.674;4.616;2023-04-25T09:38:43;14.30;99.90
20773;DHT22;10546;50.674;4.616;2023-04-25T09:41:10;14.50;99.90
20773;DHT22;10546;50.674;4.616;2023-04-25T09:43:37;14.20;99.90
20773;DHT22;10546;50.674;4.616;2023-04-25T09:46:08;14.50;99.90
20773;DHT22;10546;50.674;4.616;2023-04-25T09:48:34;15.30;99.90
20773;DHT22;10546;50.674;4.616;2023-04-25T09:51:10;16.60;99.90
20773;DHT22;10546;50.674;4.616;2023-04-25T09:53:39;16.50;99.90
20773;DHT22;10546;50.674;4.616;2023-04-25T09:56:07;15.30;99.90
20773;DHT22;10546;50.674;4.616;2023-04-25T09:58:35;14.50;99.90
20773;DHT22;10546;50.674;4.616;2023-04-25T10:01:03;14.30;99.90
20773;DHT22;10546;50.674;4.616;2023-04-25T10:03:36;13.60;99.90
20773;DHT22;10546;50.674;4.616;2023-04-25T10:06:07;13.10;99.90
20773;DHT22;10546;50.674;4.616;2023-04-25T10:08:36;12.80;99.90
20773;DHT22;10546;50.674;4.616;2023-04-25T10:11:06;12.30;99.90
20773;DHT22;10546;50.674;4.616;2023-04-25T10:13:33;11.80;99.90
20773;DHT22;10546;50.674;4.616;2023-04-25T10:16:01;11.70;99.90
20773;DHT22;10546;50.674;4.616;2023-04-25T10:18:28;11.70;99.90
20773;DHT22;10546;50.674;4.616;2023-04-25T10:20:59;11.70;99.90
20773;DHT22;10546;50.674;4.616;2023-04-25T10:23:25;11.70;99.90
20773;DHT22;10546;50.674;4.616;2023-04-25T10:25:52;11.70;99.90
20773;DHT22;10546;50.674;4.616;2023-04-25T10:28:19;11.80;99.90
20773;DHT22;10546;50.674;4.616;2023-04-25T10:30:59;11.80;99.90
20773;DHT22;10546;50.674;4.616;2023-04-25T10:33:39;11.50;99.90
20773;DHT22;10546;50.674;4.616;2023-04-25T10:36:15;11.00;99.90
20773;DHT22;10546;50.674;4.616;2023-04-25T10:38:43;10.50;99.90
20773;DHT22;10546;50.674;4.616;2023-04-25T10:41:10;10.10;99.90
20773;DHT22;10546;50.674;4.616;2023-04-25T10:46:26;10.10;99.90
20773;DHT22;10546;50.674;4.616;2023-04-25T10:48:53;10.20;99.90
20773;DHT22;10546;50.674;4.616;2023-04-25T10:51:24;10.30;99.90
20773;DHT22;10546;50.674;4.616;2023-04-25T10:54:03;10.30;99.90
20773;DHT22;10546;50.674;4.616;2023-04-25T10:59:07;11.20;99.90
20773;DHT22;10546;50.674;4.616;2023-04-25T11:01:43;12.80;99.90
20773;DHT22;10546;50.674;4.616;2023-04-25T11:04:28;14.30;99.90
20773;DHT22;10546;50.674;4.616;2023-04-25T11:09:54;15.60;99.90
20773;DHT22;10546;50.674;4.616;2023-04-25T11:12:19;14.90;99.90
20773;DHT22;10546;50.674;4.616;2023-04-25T11:14:45;14.20;99.90
20773;DHT22;10546;50.674;4.616;2023-04-25T11:17:11;13.70;99.90
20773;DHT22;10546;50.674;4.616;2023-04-25T11:19:37;13.40;99.90
20773;DHT22;10546;50.674;4.616;2023-04-25T11:22:03;13.00;99.90
20773;DHT22;10546;50.674;4.616;2023-04-25T11:24:29;12.80;99.90
20773;DHT22;10546;50.674;4.616;2023-04-25T11:26:56;12.80;99.90
20773;DHT22;10546;50.674;4.616;2023-04-25T11:29:23;13.00;99.90
20773;DHT22;10546;50.674;4.616;2023-04-25T11:31:48;13.70;99.90
20773;DHT22;10546;50.674;4.616;2023-04-25T11:34:20;14.30;99.90
20773;DHT22;10546;50.674;4.616;2023-04-25T11:36:46;14.40;99.90
20773;DHT22;10546;50.674;4.616;2023-04-25T11:39:12;14.30;99.90
20773;DHT22;10546;50.674;4.616;2023-04-25T11:41:38;13.80;99.90
20773;DHT22;10546;50.674;4.616;2023-04-25T11:44:05;13.50;99.90
20773;DHT22;10546;50.674;4.616;2023-04-25T11:46:33;12.70;99.90
20773;DHT22;10546;50.674;4.616;2023-04-25T11:48:59;12.20;99.90
20773;DHT22;10546;50.674;4.616;2023-04-25T11:51:25;11.90;99.90
20773;DHT22;10546;50.674;4.616;2023-04-25T11:53:51;12.10;99.90
20773;DHT22;10546;50.674;4.616;2023-04-25T11:56:17;12.20;99.90
20773;DHT22;10546;50.674;4.616;2023-04-25T11:59:13;12.20;99.90
20773;DHT22;10546;50.674;4.616;2023-04-25T12:01:40;12.20;99.90
20773;DHT22;10546;50.674;4.616;2023-04-25T12:04:17;12.20;99.90
20773;DHT22;10546;50.674;4.616;2023-04-25T12:06:44;11.90;99.90
20773;DHT22;10546;50.674;4.616;2023-04-25T12:09:15;11.60;99.90
20773;DHT22;10546;50.674;4.616;2023-04-25T12:11:44;11.10;99.90
20773;DHT22;10546;50.674;4.616;2023-04-25T12:14:11;11.00;99.90
20773;DHT22;10546;50.674;4.616;2023-04-25T12:16:45;11.00;99.90
20773;DHT22;10546;50.674;4.616;2023-04-25T12:19:15;10.90;99.90
20773;DHT22;10546;50.674;4.616;2023-04-25T12:21:42;10.90;99.90
20773;DHT22;10546;50.674;4.616;2023-04-25T12:24:15;11.00;99.90
20773;DHT22;10546;50.674;4.616;2023-04-25T12:27:01;10.80;99.90
20773;DHT22;10546;50.674;4.616;2023-04-25T12:29:30;11.00;99.90
20773;DHT22;10546;50.674;4.616;2023-04-25T12:31:57;11.20;99.90
20773;DHT22;10546;50.674;4.616;2023-04-25T12:34:23;11.50;99.90
20773;DHT22;10546;50.674;4.616;2023-04-25T12:36:50;11.60;99.90
20773;DHT22;10546;50.674;4.616;2023-04-25T12:39:23;12.10;99.90
20773;DHT22;10546;50.674;4.616;2023-04-25T12:41:52;12.70;99.90
20773;DHT22;10546;50.674;4.616;2023-04-25T12:44:21;13.50;99.90
20773;DHT22;10546;50.674;4.616;2023-04-25T12:46:48;14.00;99.90
20773;DHT22;10546;50.674;4.616;2023-04-25T12:49:13;14.30;99.90
20773;DHT22;10546;50.674;4.616;2023-04-25T12:51:39;13.90;99.90
20773;DHT22;10546;50.674;4.616;2023-04-25T12:54:05;13.60;99.90
20773;DHT22;10546;50.674;4.616;2023-04-25T12:56:34;13.30;99.90
20773;DHT22;10546;50.674;4.616;2023-04-25T12:59:00;13.00;99.90
20773;DHT22;10546;50.674;4.616;2023-04-25T13:01:28;12.60;99.90
20773;DHT22;10546;50.674;4.616;2023-04-25T13:03:54;12.30;99.90
20773;DHT22;10546;50.674;4.616;2023-04-25T13:06:20;12.30;99.90
20773;DHT22;10546;50.674;4.616;2023-04-25T13:08:46;12.40;99.90
20773;DHT22;10546;50.674;4.616;2023-04-25T13:11:12;12.50;99.90
20773;DHT22;10546;50.674;4.616;2023-04-25T13:13:40;12.30;99.90
20773;DHT22;10546;50.674;4.616;2023-04-25T13:16:06;12.30;99.90
20773;DHT22;10546;50.674;4.616;2023-04-25T13:18:33;12.40;99.90
20773;DHT22;10546;50.674;4.616;2023-04-25T13:20:59;12.60;99.90
20773;DHT22;10546;50.674;4.616;2023-04-25T13:23:27;12.90;99.90
20773;DHT22;10546;50.674;4.616;2023-04-25T13:25:53;13.00;99.90
20773;DHT22;10546;50.674;4.616;2023-04-25T13:28:20;13.00;99.90
20773;DHT22;10546;50.674;4.616;2023-04-25T13:30:46;13.00;99.90
20773;DHT22;10546;50.674;4.616;2023-04-25T13:33:13;13.00;99.90
20773;DHT22;10546;50.674;4.616;2023-04-25T13:35:39;12.80;99.90
20773;DHT22;10546;50.674;4.616;2023-04-25T13:38:05;12.60;99.90
20773;DHT22;10546;50.674;4.616;2023-04-25T13:40:31;12.50;99.90
20773;DHT22;10546;50.674;4.616;2023-04-25T13:42:57;12.50;99.90
20773;DHT22;10546;50.674;4.616;2023-04-25T13:45:23;12.60;99.90
20773;DHT22;10546;50.674;4.616;2023-04-25T13:47:49;12.60;99.90
20773;DHT22;10546;50.674;4.616;2023-04-25T13:50:15;13.00;99.90
20773;DHT22;10546;50.674;4.616;2023-04-25T13:52:41;13.20;99.90
20773;DHT22;10546;50.674;4.616;2023-04-25T13:55:08;13.60;99.90
20773;DHT22;10546;50.674;4.616;2023-04-25T13:57:34;13.80;99.90
20773;DHT22;10546;50.674;4.616;2023-04-25T14:00:00;13.70;99.90
20773;DHT22;10546;50.674;4.616;2023-04-25T14:02:30;13.50;99.90
20773;DHT22;10546;50.674;4.616;2023-04-25T14:04:56;13.10;99.90
20773;DHT22;10546;50.674;4.616;2023-04-25T14:07:21;12.80;99.90
20773;DHT22;10546;50.674;4.616;2023-04-25T14:09:47;12.70;99.90
20773;DHT22;10546;50.674;4.616;2023-04-25T14:12:13;12.50;99.90
20773;DHT22;10546;50.674;4.616;2023-04-25T14:14:38;12.40;99.90
20773;DHT22;10546;50.674;4.616;2023-04-25T14:17:04;12.60;99.90
20773;DHT22;10546;50.674;4.616;2023-04-25T14:19:30;12.50;99.90
20773;DHT22;10546;50.674;4.616;2023-04-25T14:21:56;12.40;99.90
20773;DHT22;10546;50.674;4.616;2023-04-25T14:24:21;12.40;99.90
20773;DHT22;10546;50.674;4.616;2023-04-25T14:26:47;12.60;99.90
20773;DHT22;10546;50.674;4.616;2023-04-25T14:29:13;12.90;99.90
20773;DHT22;10546;50.674;4.616;2023-04-25T14:31:39;12.70;99.90
20773;DHT22;10546;50.674;4.616;2023-04-25T14:34:05;12.90;99.90
20773;DHT22;10546;50.674;4.616;2023-04-25T14:36:31;12.70;99.90
20773;DHT22;10546;50.674;4.616;2023-04-25T14:38:58;12.30;99.90
20773;DHT22;10546;50.674;4.616;2023-04-25T14:41:24;12.20;99.90
20773;DHT22;10546;50.674;4.616;2023-04-25T14:43:50;12.10;99.90
20773;DHT22;10546;50.674;4.616;2023-04-25T14:46:16;12.00;99.90
20773;DHT22;10546;50.674;4.616;2023-04-25T14:48:42;12.20;99.90
20773;DHT22;10546;50.674;4.616;2023-04-25T14:51:08;12.30;99.90
20773;DHT22;10546;50.674;4.616;2023-04-25T14:53:33;12.10;99.90
20773;DHT22;10546;50.674;4.616;2023-04-25T14:55:59;12.00;99.90
20773;DHT22;10546;50.674;4.616;2023-04-25T14:58:25;12.00;99.90
20773;DHT22;10546;50.674;4.616;2023-04-25T15:00:50;12.10;99.90
20773;DHT22;10546;50.674;4.616;2023-04-25T15:03:16;12.40;99.90
20773;DHT22;10546;50.674;4.616;2023-04-25T15:05:43;12.40;99.90
20773;DHT22;10546;50.674;4.616;2023-04-25T15:08:08;12.50;99.90
20773;DHT22;10546;50.674;4.616;2023-04-25T15:10:36;12.30;99.90
20773;DHT22;10546;50.674;4.616;2023-04-25T15:13:02;12.40;99.90
20773;DHT22;10546;50.674;4.616;2023-04-25T15:15:28;12.20;99.90
20773;DHT22;10546;50.674;4.616;2023-04-25T15:17:54;11.70;99.90
20773;DHT22;10546;50.674;4.616;2023-04-25T15:20:21;11.70;99.90
20773;DHT22;10546;50.674;4.616;2023-04-25T15:22:47;11.60;99.90
20773;DHT22;10546;50.674;4.616;2023-04-25T15:25:14;11.50;99.90
20773;DHT22;10546;50.674;4.616;2023-04-25T15:27:41;11.50;99.90
20773;DHT22;10546;50.674;4.616;2023-04-25T15:30:13;11.60;99.90
20773;DHT22;10546;50.674;4.616;2023-04-25T15:32:43;11.70;99.90
20773;DHT22;10546;50.674;4.616;2023-04-25T15:35:10;11.80;99.90
20773;DHT22;10546;50.674;4.616;2023-04-25T15:37:37;11.80;99.90
20773;DHT22;10546;50.674;4.616;2023-04-25T15:40:08;11.60;99.90
20773;DHT22;10546;50.674;4.616;2023-04-25T15:42:35;11.60;99.90
20773;DHT22;10546;50.674;4.616;2023-04-25T15:45:03;11.60;99.90
20773;DHT22;10546;50.674;4.616;2023-04-25T15:47:28;11.60;99.90
20773;DHT22;10546;50.674;4.616;2023-04-25T15:49:54;11.70;99.90
20773;DHT22;10546;50.674;4.616;2023-04-25T15:52:20;11.90;99.90
20773;DHT22;10546;50.674;4.616;2023-04-25T15:54:46;11.90;99.90
20773;DHT22;10546;50.674;4.616;2023-04-25T15:57:12;12.00;99.90
20773;DHT22;10546;50.674;4.616;2023-04-25T15:59:38;12.00;99.90
20773;DHT22;10546;50.674;4.616;2023-04-25T16:02:04;12.00;99.90
20773;DHT22;10546;50.674;4.616;2023-04-25T16:04:29;12.00;99.90
20773;DHT22;10546;50.674;4.616;2023-04-25T16:07:00;11.60;99.90
20773;DHT22;10546;50.674;4.616;2023-04-25T16:09:26;11.40;99.90
20773;DHT22;10546;50.674;4.616;2023-04-25T16:11:51;11.20;99.90
20773;DHT22;10546;50.674;4.616;2023-04-25T16:14:17;11.20;99.90
20773;DHT22;10546;50.674;4.616;2023-04-25T16:16:43;11.10;99.90
20773;DHT22;10546;50.674;4.616;2023-04-25T16:19:09;11.10;99.90
20773;DHT22;10546;50.674;4.616;2023-04-25T16:21:35;11.10;99.90
20773;DHT22;10546;50.674;4.616;2023-04-25T16:24:01;11.00;99.90
20773;DHT22;10546;50.674;4.616;2023-04-25T16:26:26;11.00;99.90
20773;DHT22;10546;50.674;4.616;2023-04-25T16:28:52;10.80;99.90
20773;DHT22;10546;50.674;4.616;2023-04-25T16:31:18;10.70;99.90
20773;DHT22;10546;50.674;4.616;2023-04-25T16:33:44;10.60;99.90
20773;DHT22;10546;50.674;4.616;2023-04-25T16:36:09;10.70;99.90
20773;DHT22;10546;50.674;4.616;2023-04-25T16:38:37;10.60;99.90
20773;DHT22;10546;50.674;4.616;2023-04-25T16:41:04;10.60;99.90
20773;DHT22;10546;50.674;4.616;2023-04-25T16:43:30;10.60;99.90
20773;DHT22;10546;50.674;4.616;2023-04-25T16:45:56;10.70;99.90
20773;DHT22;10546;50.674;4.616;2023-04-25T16:48:22;10.80;99.90
20773;DHT22;10546;50.674;4.616;2023-04-25T16:50:52;10.80;99.90
20773;DHT22;10546;50.674;4.616;2023-04-25T16:53:18;10.80;99.90
20773;DHT22;10546;50.674;4.616;2023-04-25T16:55:45;10.90;99.90
20773;DHT22;10546;50.674;4.616;2023-04-25T16:58:11;10.90;99.90
20773;DHT22;10546;50.674;4.616;2023-04-25T17:00:38;10.90;99.90
20773;DHT22;10546;50.674;4.616;2023-04-25T17:03:05;10.70;99.90
20773;DHT22;10546;50.674;4.616;2023-04-25T17:05:30;10.60;99.90
20773;DHT22;10546;50.674;4.616;2023-04-25T17:07:56;10.60;99.90
20773;DHT22;10546;50.674;4.616;2023-04-25T17:10:22;10.30;99.90
20773;DHT22;10546;50.674;4.616;2023-04-25T17:12:48;10.40;99.90
20773;DHT22;10546;50.674;4.616;2023-04-25T17:15:14;10.60;99.90
20773;DHT22;10546;50.674;4.616;2023-04-25T17:17:40;10.50;99.90
20773;DHT22;10546;50.674;4.616;2023-04-25T17:20:06;10.50;99.90
20773;DHT22;10546;50.674;4.616;2023-04-25T17:22:36;10.50;99.90
20773;DHT22;10546;50.674;4.616;2023-04-25T17:25:06;10.60;99.90
20773;DHT22;10546;50.674;4.616;2023-04-25T17:27:34;10.60;99.90
20773;DHT22;10546;50.674;4.616;2023-04-25T17:30:00;10.70;99.90
20773;DHT22;10546;50.674;4.616;2023-04-25T17:32:28;10.70;99.90
20773;DHT22;10546;50.674;4.616;2023-04-25T17:34:53;10.60;99.90
20773;DHT22;10546;50.674;4.616;2023-04-25T17:37:20;10.50;99.90
20773;DHT22;10546;50.674;4.616;2023-04-25T17:39:46;10.30;99.90
20773;DHT22;10546;50.674;4.616;2023-04-25T17:42:12;10.00;99.90
20773;DHT22;10546;50.674;4.616;2023-04-25T17:44:39;10.00;99.90
20773;DHT22;10546;50.674;4.616;2023-04-25T17:47:05;10.00;99.90
20773;DHT22;10546;50.674;4.616;2023-04-25T17:49:32;10.00;99.90
20773;DHT22;10546;50.674;4.616;2023-04-25T17:51:59;10.10;99.90
20773;DHT22;10546;50.674;4.616;2023-04-25T17:54:24;10.10;99.90
20773;DHT22;10546;50.674;4.616;2023-04-25T17:56:50;10.00;99.90
20773;DHT22;10546;50.674;4.616;2023-04-25T17:59:16;9.80;99.90
20773;DHT22;10546;50.674;4.616;2023-04-25T18:01:42;9.50;99.90
20773;DHT22;10546;50.674;4.616;2023-04-25T18:04:08;9.40;99.90
20773;DHT22;10546;50.674;4.616;2023-04-25T18:06:34;9.50;99.90
20773;DHT22;10546;50.674;4.616;2023-04-25T18:09:00;9.40;99.90
20773;DHT22;10546;50.674;4.616;2023-04-25T18:11:28;9.40;99.90
20773;DHT22;10546;50.674;4.616;2023-04-25T18:13:54;9.30;99.90
20773;DHT22;10546;50.674;4.616;2023-04-25T18:16:20;9.30;99.90
20773;DHT22;10546;50.674;4.616;2023-04-25T18:18:47;9.30;99.90
20773;DHT22;10546;50.674;4.616;2023-04-25T18:21:20;9.10;99.90
20773;DHT22;10546;50.674;4.616;2023-04-25T18:23:46;9.10;99.90
20773;DHT22;10546;50.674;4.616;2023-04-25T18:26:11;9.00;99.90
20773;DHT22;10546;50.674;4.616;2023-04-25T18:28:37;9.10;99.90
20773;DHT22;10546;50.674;4.616;2023-04-25T18:31:03;8.90;99.90
20773;DHT22;10546;50.674;4.616;2023-04-25T18:33:30;9.10;99.90
20773;DHT22;10546;50.674;4.616;2023-04-25T18:35:56;9.00;99.90
20773;DHT22;10546;50.674;4.616;2023-04-25T18:38:25;8.90;99.90
20773;DHT22;10546;50.674;4.616;2023-04-25T18:40:51;8.90;99.90
20773;DHT22;10546;50.674;4.616;2023-04-25T18:43:17;8.80;99.90
20773;DHT22;10546;50.674;4.616;2023-04-25T18:45:42;8.80;99.90
20773;DHT22;10546;50.674;4.616;2023-04-25T18:48:08;8.70;99.90
20773;DHT22;10546;50.674;4.616;2023-04-25T18:50:34;8.90;99.90
20773;DHT22;10546;50.674;4.616;2023-04-25T18:53:00;8.90;99.90
20773;DHT22;10546;50.674;4.616;2023-04-25T18:55:27;8.60;99.90
20773;DHT22;10546;50.674;4.616;2023-04-25T18:57:53;8.50;99.90
20773;DHT22;10546;50.674;4.616;2023-04-25T19:00:20;8.40;99.90
20773;DHT22;10546;50.674;4.616;2023-04-25T19:02:46;8.30;99.90
20773;DHT22;10546;50.674;4.616;2023-04-25T19:05:11;8.10;99.90
20773;DHT22;10546;50.674;4.616;2023-04-25T19:07:37;8.00;99.90
20773;DHT22;10546;50.674;4.616;2023-04-25T19:10:04;8.00;99.90
20773;DHT22;10546;50.674;4.616;2023-04-25T19:12:30;7.90;99.90
20773;DHT22;10546;50.674;4.616;2023-04-25T19:14:57;7.80;99.90
20773;DHT22;10546;50.674;4.616;2023-04-25T19:17:23;7.80;99.90
20773;DHT22;10546;50.674;4.616;2023-04-25T19:19:49;7.70;99.90
20773;DHT22;10546;50.674;4.616;2023-04-25T19:22:15;7.60;99.90
20773;DHT22;10546;50.674;4.616;2023-04-25T19:24:40;7.50;99.90
20773;DHT22;10546;50.674;4.616;2023-04-25T19:27:06;7.40;99.90
20773;DHT22;10546;50.674;4.616;2023-04-25T19:29:32;7.40;99.90
20773;DHT22;10546;50.674;4.616;2023-04-25T19:31:58;7.50;99.90
20773;DHT22;10546;50.674;4.616;2023-04-25T19:34:24;7.50;99.90
20773;DHT22;10546;50.674;4.616;2023-04-25T19:36:50;7.40;99.90
20773;DHT22;10546;50.674;4.616;2023-04-25T19:39:19;7.40;99.90
20773;DHT22;10546;50.674;4.616;2023-04-25T19:41:45;7.50;99.90
20773;DHT22;10546;50.674;4.616;2023-04-25T19:44:10;7.40;99.90
20773;DHT22;10546;50.674;4.616;2023-04-25T19:46:36;7.40;99.90
20773;DHT22;10546;50.674;4.616;2023-04-25T19:49:03;7.40;99.90
20773;DHT22;10546;50.674;4.616;2023-04-25T19:51:32;7.30;99.90
20773;DHT22;10546;50.674;4.616;2023-04-25T19:53:58;7.20;99.90
20773;DHT22;10546;50.674;4.616;2023-04-25T19:56:24;7.10;99.90
20773;DHT22;10546;50.674;4.616;2023-04-25T19:58:50;7.10;99.90
20773;DHT22;10546;50.674;4.616;2023-04-25T20:01:16;7.20;99.90
20773;DHT22;10546;50.674;4.616;2023-04-25T20:03:42;7.20;99.90
20773;DHT22;10546;50.674;4.616;2023-04-25T20:06:09;7.10;99.90
20773;DHT22;10546;50.674;4.616;2023-04-25T20:08:35;7.00;99.90
20773;DHT22;10546;50.674;4.616;2023-04-25T20:11:01;7.00;99.90
20773;DHT22;10546;50.674;4.616;2023-04-25T20:13:28;7.10;99.90
20773;DHT22;10546;50.674;4.616;2023-04-25T20:15:54;7.00;99.90
20773;DHT22;10546;50.674;4.616;2023-04-25T20:18:19;6.90;99.90
20773;DHT22;10546;50.674;4.616;2023-04-25T20:20:46;6.80;99.90
20773;DHT22;10546;50.674;4.616;2023-04-25T20:23:12;6.70;99.90
20773;DHT22;10546;50.674;4.616;2023-04-25T20:25:38;6.70;99.90
20773;DHT22;10546;50.674;4.616;2023-04-25T20:28:04;6.70;99.90
20773;DHT22;10546;50.674;4.616;2023-04-25T20:30:29;6.60;99.90
20773;DHT22;10546;50.674;4.616;2023-04-25T20:32:56;6.70;99.90
20773;DHT22;10546;50.674;4.616;2023-04-25T20:35:22;6.70;99.90
20773;DHT22;10546;50.674;4.616;2023-04-25T20:37:48;6.70;99.90
20773;DHT22;10546;50.674;4.616;2023-04-25T20:40:15;6.70;99.90
20773;DHT22;10546;50.674;4.616;2023-04-25T20:42:41;6.70;99.90
20773;DHT22;10546;50.674;4.616;2023-04-25T20:45:07;6.60;99.90
20773;DHT22;10546;50.674;4.616;2023-04-25T20:47:38;6.60;99.90
20773;DHT22;10546;50.674;4.616;2023-04-25T20:50:07;6.60;99.90
20773;DHT22;10546;50.674;4.616;2023-04-25T20:52:33;6.60;99.90
20773;DHT22;10546;50.674;4.616;2023-04-25T20:54:59;6.60;99.90
20773;DHT22;10546;50.674;4.616;2023-04-25T20:57:26;6.50;99.90
20773;DHT22;10546;50.674;4.616;2023-04-25T20:59:51;6.50;99.90
20773;DHT22;10546;50.674;4.616;2023-04-25T21:02:18;6.50;99.90
20773;DHT22;10546;50.674;4.616;2023-04-25T21:04:44;6.50;99.90
20773;DHT22;10546;50.674;4.616;2023-04-25T21:07:13;6.40;99.90
20773;DHT22;10546;50.674;4.616;2023-04-25T21:09:39;6.30;99.90
20773;DHT22;10546;50.674;4.616;2023-04-25T21:12:09;6.30;99.90